Time;durP1;ratioP1;P1;durP2;ratioP2;P2;SDS_P1;SDS_P2;PMS_P1;PMS_P2;Temp;Humidity;BMP_temperature;BMP_pressure;BME280_temperature;BME280_humidity;BME280_pressure;Samples;Min_cycle;Max_cycle;Signal;HPM_P1;HPM_P2
2022/03/02 00:18:48;;;;;;;11.35;6.15;;;3.40;90.90;;;;;;4850799;29;20047;-83
2022/03/02 00:22:00;;;;;;;10.73;6.53;;;3.50;90.90;;;;;;4899780;29;20443;-84
2022/03/02 00:28:11;;;;;;;14.18;6.10;;;3.60;91.60;;;;;;4769454;29;20144;-84
2022/03/02 00:30:40;;;;;;;8.20;6.03;;;3.60;92.00;;;;;;4827268;29;20077;-84
2022/03/02 00:33:55;;;;;;;11.18;6.25;;;3.60;91.30;;;;;;5032847;28;20488;-83
2022/03/02 00:36:31;;;;;;;9.85;6.25;;;3.60;91.40;;;;;;5106020;28;20064;-84
2022/03/02 00:46:48;;;;;;;;;;;;;;;;;;;;;
2022/03/02 00:50:02;;;;;;;12.75;6.38;;;3.60;90.90;;;;;;4980731;28;20045;-84
2022/03/02 01:06:39;;;;;;;;;;;;;;;;;;;;;
2022/03/02 01:19:24;;;;;;;8.90;6.05;;;3.60;91.40;;;;;;4935960;28;20047;-83
2022/03/02 01:21:53;;;;;;;8.68;5.85;;;3.50;91.20;;;;;;4968660;28;20163;-84
2022/03/02 01:24:19;;;;;;;9.73;6.13;;;3.50;91.30;;;;;;5102655;28;20036;-84
2022/03/02 01:26:57;;;;;;;9.45;5.97;;;3.50;91.60;;;;;;5084810;28;20409;-85
2022/03/02 01:29:34;;;;;;;8.60;6.43;;;3.50;91.30;;;;;;5105881;28;20122;-84
2022/03/02 01:32:13;;;;;;;13.30;6.32;;;3.40;91.30;;;;;;5097613;27;20037;-84
2022/03/02 01:35:28;;;;;;;;;;;;;;;;;;;;;
2022/03/02 01:37:43;;;;;;;10.27;6.03;;;3.40;91.70;;;;;;5088954;28;20036;-84
2022/03/02 01:40:44;;;;;;;10.90;6.38;;;3.40;91.40;;;;;;5089739;28;20023;-84
2022/03/02 01:43:39;;;;;;;10.27;5.80;;;3.30;91.50;;;;;;5086194;28;20032;-84
2022/03/02 01:46:13;;;;;;;10.00;6.80;;;3.30;91.40;;;;;;5082215;28;20055;-84
2022/03/02 01:48:52;;;;;;;10.07;6.07;;;3.30;91.80;;;;;;5062326;28;20119;-84
2022/03/02 02:05:23;;;;;;;13.20;6.95;;;3.30;91.70;;;;;;4963761;28;20042;-83
2022/03/02 02:14:53;;;;;;;11.02;5.78;;;3.30;92.80;;;;;;4985337;28;20029;-83
2022/03/02 03:09:43;;;;;;;;;;;;;;;;;;;;;
2022/03/02 03:47:04;;;;;;;6.88;5.00;;;3.10;88.20;;;;;;4838608;29;20061;-83
2022/03/02 03:53:10;;;;;;;9.45;5.15;;;2.90;88.70;;;;;;4838166;29;20028;-84
2022/03/02 03:56:31;;;;;;;6.60;4.40;;;2.80;89.30;;;;;;4838117;29;20026;-84
2022/03/02 04:02:28;;;;;;;11.95;5.28;;;2.60;90.10;;;;;;4930189;29;20253;-84
2022/03/02 04:09:07;;;;;;;8.30;5.40;;;2.40;90.50;;;;;;5056873;27;20394;-84
2022/03/02 04:12:00;;;;;;;8.88;4.75;;;2.30;90.20;;;;;;5120487;27;20047;-84
2022/03/02 04:28:43;;;;;;;9.57;4.97;;;2.50;90.10;;;;;;5117565;27;20072;-84
2022/03/02 04:45:46;;;;;;;;;;;;;;;;;;;;;
2022/03/02 04:52:05;;;;;;;;;;;;;;;;;;;;;
2022/03/02 04:58:22;;;;;;;7.03;4.63;;;2.70;87.50;;;;;;4999852;28;20638;-83
2022/03/02 05:08:04;;;;;;;9.98;4.95;;;2.60;87.50;;;;;;4911005;29;20132;-83
2022/03/02 05:13:55;;;;;;;6.28;4.60;;;2.70;84.90;;;;;;4906945;29;20039;-84
2022/03/02 05:19:17;;;;;;;7.85;4.97;;;2.80;85.30;;;;;;5112791;27;20062;-84
2022/03/02 05:22:12;;;;;;;5.90;4.47;;;2.70;85.40;;;;;;5122417;27;20027;-83
2022/03/02 05:25:03;;;;;;;7.10;4.75;;;2.70;84.90;;;;;;5104172;27;20140;-83
2022/03/02 05:28:07;;;;;;;6.28;4.82;;;2.70;85.20;;;;;;5114526;27;20063;-83
2022/03/02 05:30:50;;;;;;;7.50;4.68;;;2.70;84.90;;;;;;5066554;28;20062;-83
2022/03/02 05:33:48;;;;;;;;;;;2.70;85.30;;;;;;5123053;27;20035;-83
2022/03/02 05:39:58;;;;;;;9.88;5.13;;;2.80;86.10;;;;;;5021817;28;20026;-83
2022/03/02 05:46:28;;;;;;;5.78;4.32;;;2.70;84.50;;;;;;5024352;28;20149;-83
2022/03/02 05:49:26;;;;;;;6.93;4.60;;;2.80;84.00;;;;;;4975284;28;20544;-83
2022/03/02 05:51:52;;;;;;;6.95;4.25;;;2.80;84.60;;;;;;5008286;28;20536;-83
2022/03/02 05:54:39;;;;;;;9.93;4.85;;;2.80;82.80;;;;;;5022838;28;20473;-82
2022/03/02 05:57:08;;;;;;;8.82;4.75;;;2.90;82.50;;;;;;5084467;27;20035;-83
2022/03/02 05:59:53;;;;;;;7.85;4.93;;;2.90;81.50;;;;;;5120173;27;20023;-82
2022/03/02 06:02:19;;;;;;;8.43;4.55;;;3.00;80.80;;;;;;5116792;27;20024;-84
2022/03/02 06:04:47;;;;;;;7.35;4.93;;;3.00;81.10;;;;;;5103831;27;20024;-84
2022/03/02 06:07:24;;;;;;;9.52;4.85;;;3.00;80.70;;;;;;5118704;27;20084;-83
2022/03/02 06:10:01;;;;;;;6.75;4.38;;;3.10;80.90;;;;;;5103700;28;20020;-83
2022/03/02 06:12:38;;;;;;;10.65;4.90;;;3.10;81.20;;;;;;5083325;28;20495;-84
2022/03/02 06:15:05;;;;;;;7.60;4.75;;;3.10;81.00;;;;;;5100902;28;20512;-84
2022/03/02 06:17:34;;;;;;;7.60;4.88;;;3.10;81.70;;;;;;5083501;28;20064;-83
2022/03/02 06:21:03;;;;;;;;;;;;;;;;;;;;;
2022/03/02 06:23:53;;;;;;;7.60;5.20;;;3.10;81.70;;;;;;5014259;28;20494;-83
2022/03/02 06:26:25;;;;;;;9.38;4.75;;;3.20;81.30;;;;;;5082902;28;20040;-83
2022/03/02 06:28:52;;;;;;;;;;;3.20;80.80;;;;;;5081196;28;20024;-83
2022/03/02 06:31:18;;;;;;;7.13;4.88;;;3.30;81.90;;;;;;5105349;28;19962;-83
2022/03/02 06:33:47;;;;;;;7.43;5.05;;;3.40;80.50;;;;;;5080289;28;20023;-83
2022/03/02 06:36:32;;;;;;;8.82;5.60;;;3.50;81.10;;;;;;5105575;28;20019;-83
2022/03/02 06:39:08;;;;;;;7.60;5.22;;;3.50;81.10;;;;;;5099061;28;20020;-83
2022/03/02 06:41:59;;;;;;;7.90;4.63;;;3.60;81.10;;;;;;5107109;28;20087;-83
2022/03/02 06:44:32;;;;;;;7.55;5.03;;;3.70;81.00;;;;;;5097205;28;20077;-84
2022/03/02 06:47:09;;;;;;;8.85;5.35;;;3.70;81.40;;;;;;5079618;28;20036;-84
2022/03/02 06:50:27;;;;;;;10.80;5.47;;;3.80;81.10;;;;;;5099607;28;20084;-83
2022/03/02 06:53:16;;;;;;;8.93;5.68;;;3.90;79.80;;;;;;5097633;28;20015;-84
2022/03/02 06:55:55;;;;;;;10.73;5.68;;;3.90;81.10;;;;;;5101657;28;20023;-84
2022/03/02 06:59:10;;;;;;;;;;;;;;;;;;;;;
2022/03/02 07:01:40;;;;;;;9.63;5.47;;;4.10;80.70;;;;;;5103294;28;20479;-81
2022/03/02 07:04:24;;;;;;;12.15;6.40;;;4.20;81.30;;;;;;5098280;28;20537;-81
2022/03/02 07:06:55;;;;;;;8.27;5.63;;;4.30;79.40;;;;;;5101637;27;20670;-82
2022/03/02 07:09:27;;;;;;;7.88;5.20;;;4.40;79.50;;;;;;5118691;27;20116;-82
2022/03/02 07:11:58;;;;;;;8.80;5.50;;;4.60;78.90;;;;;;5122206;27;20023;-81
2022/03/02 07:14:35;;;;;;;8.82;5.60;;;4.70;78.60;;;;;;5117537;27;20045;-82
2022/03/02 07:17:45;;;;;;;6.72;4.93;;;4.80;77.80;;;;;;5119120;27;20027;-82
2022/03/02 07:20:42;;;;;;;;;;;;;;;;;;;;;
2022/03/02 07:23:05;;;;;;;10.90;5.18;;;5.00;78.20;;;;;;5113094;27;20036;-82
2022/03/02 07:25:41;;;;;;;8.50;4.90;;;5.10;79.80;;;;;;5124652;27;20026;-81
2022/03/02 07:28:10;;;;;;;11.68;5.47;;;5.20;79.30;;;;;;5122897;27;20130;-81
2022/03/02 07:30:37;;;;;;;8.40;5.10;;;5.30;80.00;;;;;;5125060;27;20035;-81
2022/03/02 07:33:05;;;;;;;10.50;5.00;;;5.30;79.10;;;;;;5120160;27;20035;-82
2022/03/02 07:35:39;;;;;;;10.60;5.57;;;5.40;77.50;;;;;;5103754;28;20020;-82
2022/03/02 07:38:06;;;;;;;14.98;7.45;;;5.60;78.00;;;;;;5120363;27;20027;-81
2022/03/02 07:40:33;;;;;;;25.80;10.95;;;5.70;76.80;;;;;;5119073;27;20064;-82
2022/03/02 07:43:05;;;;;;;9.68;6.32;;;5.80;77.60;;;;;;5120982;27;20081;-82
2022/03/02 07:45:48;;;;;;;9.48;6.50;;;5.90;75.70;;;;;;5123141;27;20064;-82
2022/03/02 07:48:25;;;;;;;8.77;5.82;;;5.90;75.00;;;;;;5119703;27;20087;-82
2022/03/02 07:51:08;;;;;;;14.57;7.05;;;6.00;74.40;;;;;;5119962;27;20126;-82
2022/03/02 07:54:10;;;;;;;12.65;6.72;;;6.10;75.20;;;;;;5111178;27;20063;-82
2022/03/02 07:56:42;;;;;;;9.38;6.35;;;6.20;75.50;;;;;;5120358;27;20036;-82
2022/03/02 07:59:08;;;;;;;10.52;6.60;;;6.20;75.00;;;;;;5117302;27;20019;-82
2022/03/02 08:01:44;;;;;;;14.50;7.78;;;6.30;72.90;;;;;;5128344;27;20118;-81
2022/03/02 08:04:19;;;;;;;17.00;7.00;;;6.30;73.40;;;;;;5105627;27;20031;-82
2022/03/02 08:06:46;;;;;;;16.00;6.65;;;6.30;71.40;;;;;;5114337;27;20032;-82
2022/03/02 08:09:12;;;;;;;11.70;6.70;;;6.30;68.80;;;;;;5123309;27;20494;-82
2022/03/02 08:11:38;;;;;;;13.60;6.60;;;6.30;69.10;;;;;;5104383;28;20417;-83
2022/03/02 08:14:10;;;;;;;12.82;6.97;;;6.40;69.20;;;;;;5104778;28;20030;-83
2022/03/02 08:16:36;;;;;;;12.70;7.28;;;6.50;71.00;;;;;;5122340;28;20114;-83
2022/03/02 08:19:07;;;;;;;12.60;7.65;;;6.50;70.10;;;;;;5122861;28;20035;-82
2022/03/02 08:21:35;;;;;;;10.10;7.35;;;6.60;69.30;;;;;;5121769;28;20051;-82
2022/03/02 08:24:06;;;;;;;16.27;7.95;;;6.60;68.20;;;;;;5122704;28;20539;-81
2022/03/02 08:26:36;;;;;;;15.82;7.53;;;6.60;67.70;;;;;;5121385;28;20059;-82
2022/03/02 08:29:33;;;;;;;13.48;7.85;;;6.70;68.30;;;;;;5122954;28;20027;-82
2022/03/02 08:32:08;;;;;;;10.75;7.85;;;6.70;66.70;;;;;;5115856;28;20584;-82
2022/03/02 08:34:34;;;;;;;10.63;7.47;;;6.80;67.70;;;;;;5123597;28;20026;-82
2022/03/02 08:37:03;;;;;;;16.58;7.55;;;6.80;66.50;;;;;;5120774;28;20043;-82
2022/03/02 08:39:32;;;;;;;9.18;7.05;;;6.90;66.40;;;;;;5123848;28;20020;-82
2022/03/02 08:41:57;;;;;;;9.60;7.55;;;7.00;66.20;;;;;;5116619;28;20560;-82
2022/03/02 08:44:23;;;;;;;12.38;7.22;;;7.10;66.20;;;;;;5101251;28;20027;-82
2022/03/02 08:46:55;;;;;;;15.20;7.70;;;7.20;65.50;;;;;;5121210;28;20118;-82
2022/03/02 08:49:28;;;;;;;12.20;7.68;;;7.30;65.00;;;;;;5105304;28;20470;-82
2022/03/02 08:54:50;;;;;;;16.38;7.65;;;7.40;67.70;;;;;;5112095;27;20102;-82
2022/03/02 08:57:21;;;;;;;13.35;7.20;;;7.50;70.00;;;;;;5125421;27;20103;-82
2022/03/02 09:00:10;;;;;;;18.33;9.73;;;7.60;69.20;;;;;;5122096;27;20485;-81
2022/03/02 09:02:40;;;;;;;13.32;7.38;;;7.60;69.00;;;;;;5114873;27;20023;-82
2022/03/02 09:05:07;;;;;;;14.15;6.80;;;7.60;70.20;;;;;;5127095;27;20127;-82
2022/03/02 09:07:36;;;;;;;9.48;6.80;;;7.50;70.40;;;;;;5125276;27;20374;-82
2022/03/02 09:10:11;;;;;;;12.00;7.07;;;7.40;72.20;;;;;;5118639;27;20023;-81
2022/03/02 09:12:39;;;;;;;12.90;6.82;;;7.40;73.10;;;;;;5113602;27;20019;-82
2022/03/02 09:15:08;;;;;;;10.85;6.63;;;7.40;72.50;;;;;;5110967;27;20023;-82
2022/03/02 09:17:35;;;;;;;11.80;6.45;;;7.50;73.70;;;;;;5105306;27;20019;-82
2022/03/02 09:20:01;;;;;;;11.27;6.90;;;7.60;72.50;;;;;;5122762;27;20019;-82
2022/03/02 09:22:27;;;;;;;14.52;9.35;;;7.50;72.00;;;;;;5120916;27;20016;-82
2022/03/02 09:24:53;;;;;;;9.80;6.40;;;7.50;73.00;;;;;;5109333;27;20377;-83
2022/03/02 09:27:20;;;;;;;8.30;5.60;;;7.50;73.00;;;;;;5104198;27;20122;-82
2022/03/02 09:29:48;;;;;;;7.40;6.03;;;7.60;72.90;;;;;;5122392;27;20024;-82
2022/03/02 09:32:14;;;;;;;9.00;5.53;;;7.60;72.80;;;;;;5122545;27;20018;-82
2022/03/02 09:34:45;;;;;;;8.25;5.68;;;7.60;74.30;;;;;;5103310;27;20019;-82
2022/03/02 09:37:14;;;;;;;9.18;5.82;;;7.70;74.70;;;;;;5104746;27;20022;-82
2022/03/02 09:39:43;;;;;;;10.15;6.40;;;7.70;75.00;;;;;;5121343;27;20060;-82
2022/03/02 09:42:15;;;;;;;8.35;5.68;;;7.60;76.40;;;;;;5123372;27;20434;-82
2022/03/02 09:44:43;;;;;;;;;;;7.80;75.60;;;;;;5121926;27;20015;-81
2022/03/02 09:47:21;;;;;;;12.25;6.45;;;7.80;76.30;;;;;;5104352;27;20319;-82
2022/03/02 09:49:55;;;;;;;10.05;5.95;;;8.00;77.80;;;;;;5121794;27;20422;-81
2022/03/02 09:52:22;;;;;;;9.25;5.60;;;8.00;74.70;;;;;;5105622;27;20149;-82
2022/03/02 09:54:54;;;;;;;6.35;5.10;;;7.80;76.80;;;;;;5126251;27;20163;-82
2022/03/02 09:57:21;;;;;;;9.23;5.47;;;7.80;81.10;;;;;;5124623;27;20031;-82
2022/03/02 09:59:54;;;;;;;7.63;5.53;;;7.70;81.20;;;;;;5121847;27;20059;-82
2022/03/02 10:02:37;;;;;;;6.88;5.13;;;7.70;82.10;;;;;;5122021;27;20068;-82
2022/03/02 10:05:16;;;;;;;8.57;5.53;;;7.70;82.30;;;;;;5121629;27;20117;-81
2022/03/02 10:07:55;;;;;;;9.68;5.22;;;7.60;81.80;;;;;;5123438;27;20061;-82
2022/03/02 10:10:23;;;;;;;9.43;5.82;;;7.60;88.90;;;;;;5094334;27;20053;-82
2022/03/02 10:12:54;;;;;;;8.15;5.55;;;7.60;91.20;;;;;;5124226;27;20026;-81
2022/03/02 10:15:20;;;;;;;10.90;5.88;;;7.80;92.10;;;;;;5102037;27;20023;-81
2022/03/02 10:17:53;;;;;;;11.18;6.38;;;7.80;90.30;;;;;;5105495;27;20030;-82
2022/03/02 10:20:24;;;;;;;8.57;5.20;;;7.90;93.10;;;;;;5093749;27;20100;-82
2022/03/02 10:23:18;;;;;;;14.37;7.23;;;8.00;92.00;;;;;;5124140;27;20003;-81
2022/03/02 10:25:56;;;;;;;12.27;6.35;;;8.00;91.50;;;;;;5120104;27;20028;-81
2022/03/02 10:28:30;;;;;;;6.25;5.25;;;8.20;87.20;;;;;;5124216;27;20394;-82
2022/03/02 10:31:29;;;;;;;8.40;5.45;;;8.20;85.70;;;;;;5120048;27;20259;-81
2022/03/02 10:34:01;;;;;;;10.30;5.85;;;8.10;89.60;;;;;;5117491;27;20478;-82
2022/03/02 10:36:30;;;;;;;9.48;5.43;;;8.10;89.70;;;;;;5103341;27;20424;-81
2022/03/02 10:39:05;;;;;;;10.05;5.78;;;8.20;90.10;;;;;;5121112;27;20032;-82
2022/03/02 10:41:37;;;;;;;11.40;6.03;;;8.30;90.70;;;;;;5122078;27;20022;-81
2022/03/02 10:44:16;;;;;;;14.18;6.13;;;8.40;90.20;;;;;;5102051;27;20058;-81
2022/03/02 10:46:53;;;;;;;22.48;6.57;;;8.30;89.40;;;;;;5122487;27;20035;-82
2022/03/02 10:49:22;;;;;;;10.45;5.57;;;8.50;87.90;;;;;;5120280;27;20051;-82
2022/03/02 10:51:48;;;;;;;11.07;6.72;;;8.50;87.70;;;;;;5122158;27;20075;-81
2022/03/02 10:54:23;;;;;;;9.80;6.20;;;8.50;82.50;;;;;;5105971;27;20044;-82
2022/03/02 10:56:52;;;;;;;10.10;5.90;;;8.60;82.00;;;;;;5103259;27;20023;-82
2022/03/02 10:59:27;;;;;;;9.02;6.07;;;8.70;83.00;;;;;;5106632;27;20023;-82
2022/03/02 11:01:53;;;;;;;9.35;6.40;;;8.90;85.80;;;;;;5103987;27;20038;-81
2022/03/02 11:04:21;;;;;;;10.13;6.25;;;8.90;74.80;;;;;;5119854;27;20328;-81
2022/03/02 11:06:55;;;;;;;9.27;6.15;;;8.70;73.10;;;;;;5122076;27;20045;-80
2022/03/02 11:09:30;;;;;;;9.45;6.32;;;8.60;73.30;;;;;;5124334;27;20080;-81
2022/03/02 11:12:07;;;;;;;9.27;6.07;;;8.80;72.30;;;;;;5117797;27;20024;-81
2022/03/02 11:14:33;;;;;;;12.35;7.05;;;9.00;68.80;;;;;;5126070;27;20072;-81
2022/03/02 11:17:21;;;;;;;11.30;6.30;;;8.90;72.30;;;;;;5122692;27;20497;-81
2022/03/02 11:19:50;;;;;;;8.45;6.40;;;9.20;74.70;;;;;;5082409;27;20110;-81
2022/03/02 11:22:22;;;;;;;11.88;6.50;;;9.50;72.60;;;;;;5120085;27;20019;-80
2022/03/02 11:24:57;;;;;;;13.43;7.00;;;9.40;67.70;;;;;;5101812;27;20466;-81
2022/03/02 11:27:36;;;;;;;9.40;7.00;;;9.40;63.60;;;;;;5101576;27;20036;-81
2022/03/02 11:30:08;;;;;;;10.10;6.93;;;9.60;65.70;;;;;;5120237;27;20020;-80
2022/03/02 11:32:35;;;;;;;11.82;7.05;;;9.60;63.50;;;;;;5112585;27;20016;-81
2022/03/02 11:35:04;;;;;;;9.25;7.00;;;9.60;63.70;;;;;;5120092;27;20160;-81
2022/03/02 11:37:34;;;;;;;10.20;8.07;;;9.90;63.40;;;;;;5111717;27;20182;-80
2022/03/02 11:40:01;;;;;;;20.90;8.43;;;9.90;62.10;;;;;;5118361;27;20031;-81
2022/03/02 11:42:34;;;;;;;12.93;8.20;;;10.10;65.00;;;;;;5123571;27;20023;-81
2022/03/02 11:45:09;;;;;;;14.80;9.93;;;10.50;66.30;;;;;;5101472;27;20031;-80
2022/03/02 11:47:38;;;;;;;12.70;9.50;;;10.80;60.40;;;;;;5113037;27;20039;-81
2022/03/02 11:50:12;;;;;;;14.77;9.65;;;10.90;60.60;;;;;;5099337;28;20478;-81
2022/03/02 11:52:46;;;;;;;21.05;11.57;;;10.90;61.50;;;;;;5121970;27;20041;-81
2022/03/02 11:55:16;;;;;;;18.52;11.43;;;11.00;61.90;;;;;;5118347;27;20023;-80
2022/03/02 11:57:46;;;;;;;15.23;12.00;;;11.40;63.50;;;;;;5119264;27;20668;-81
2022/03/02 12:00:16;;;;;;;13.40;11.20;;;11.40;64.30;;;;;;5107866;27;20073;-80
2022/03/02 12:02:53;;;;;;;18.10;10.65;;;11.40;63.00;;;;;;5119298;27;20076;-80
2022/03/02 12:05:21;;;;;;;17.10;10.63;;;11.20;63.40;;;;;;5110219;27;20031;-81
2022/03/02 12:07:50;;;;;;;16.48;11.27;;;11.10;62.40;;;;;;5121862;27;20034;-80
2022/03/02 12:10:25;;;;;;;16.60;10.00;;;11.10;61.20;;;;;;5117592;27;20020;-80
2022/03/02 12:12:53;;;;;;;14.73;10.77;;;11.10;60.70;;;;;;5122370;27;20011;-81
2022/03/02 12:15:20;;;;;;;13.18;10.13;;;11.00;60.70;;;;;;5118243;27;20026;-79
2022/03/02 12:17:48;;;;;;;15.50;10.50;;;10.90;60.70;;;;;;5102768;28;20023;-79
2022/03/02 12:20:18;;;;;;;15.05;10.32;;;10.60;60.30;;;;;;5099466;28;20505;-79
2022/03/02 12:22:54;;;;;;;13.50;10.77;;;10.30;59.80;;;;;;5121451;27;20068;-81
2022/03/02 12:25:48;;;;;;;22.55;12.10;;;10.20;60.80;;;;;;5106912;27;20054;-80
2022/03/02 12:28:21;;;;;;;17.13;11.80;;;10.30;61.30;;;;;;5124940;27;20036;-81
2022/03/02 12:30:48;;;;;;;15.27;12.75;;;13.10;59.30;;;;;;5125253;27;20019;-80
2022/03/02 12:33:16;;;;;;;19.48;12.68;;;15.40;54.10;;;;;;5123585;27;20643;-80
2022/03/02 12:35:42;;;;;;;15.32;12.65;;;15.40;53.00;;;;;;5109415;27;20027;-81
2022/03/02 12:38:10;;;;;;;13.70;11.10;;;14.90;54.20;;;;;;5124692;27;20106;-80
2022/03/02 12:40:41;;;;;;;16.35;11.68;;;14.90;55.50;;;;;;5122220;27;20092;-80
2022/03/02 12:43:14;;;;;;;17.00;12.65;;;14.80;55.10;;;;;;5126434;27;20019;-80
2022/03/02 12:45:46;;;;;;;;;;;15.00;56.50;;;;;;5104488;28;20050;-81
2022/03/02 12:48:17;;;;;;;14.77;11.93;;;14.90;54.90;;;;;;5127517;27;19911;-84
2022/03/02 12:50:47;;;;;;;16.40;12.55;;;14.90;56.60;;;;;;5123080;27;20031;-81
2022/03/02 12:53:17;;;;;;;19.00;13.15;;;14.70;56.90;;;;;;5129469;27;20087;-82
2022/03/02 12:55:45;;;;;;;16.98;13.43;;;14.60;56.20;;;;;;5126215;27;20057;-81
2022/03/02 12:58:11;;;;;;;19.73;13.32;;;14.50;57.30;;;;;;5124308;27;20011;-82
2022/03/02 13:00:42;;;;;;;20.02;12.98;;;14.70;57.10;;;;;;5125112;27;20049;-84
2022/03/02 13:03:22;;;;;;;17.17;13.30;;;14.70;58.00;;;;;;5125848;27;20519;-80
2022/03/02 13:05:53;;;;;;;19.05;13.02;;;14.80;58.90;;;;;;5121990;27;20601;-80
2022/03/02 13:08:26;;;;;;;24.98;13.77;;;14.90;57.60;;;;;;5125588;27;20473;-79
2022/03/02 13:10:52;;;;;;;21.05;13.57;;;15.20;56.90;;;;;;5121796;27;20081;-84
2022/03/02 13:13:44;;;;;;;24.35;13.02;;;15.50;56.70;;;;;;5108119;28;20027;-80
2022/03/02 13:16:33;;;;;;;20.33;13.60;;;16.70;55.00;;;;;;5115732;27;20040;-79
2022/03/02 13:18:59;;;;;;;17.23;12.75;;;17.50;54.30;;;;;;5121362;27;20051;-81
2022/03/02 13:21:28;;;;;;;17.30;13.55;;;18.20;53.50;;;;;;5123264;27;20022;-77
2022/03/02 13:24:05;;;;;;;19.73;13.48;;;18.10;50.00;;;;;;5104632;28;20470;-79
2022/03/02 13:26:36;;;;;;;16.77;13.00;;;17.80;51.80;;;;;;5126152;27;20034;-82
2022/03/02 13:29:09;;;;;;;19.20;13.10;;;18.10;50.90;;;;;;5119701;27;20438;-80
2022/03/02 13:32:05;;;;;;;22.50;12.98;;;18.40;49.60;;;;;;5120332;27;20034;-77
2022/03/02 13:34:34;;;;;;;16.83;13.27;;;19.00;50.30;;;;;;5096191;27;20038;-78
2022/03/02 13:37:02;;;;;;;17.83;13.68;;;19.30;49.90;;;;;;5120127;27;20468;-78
2022/03/02 13:39:41;;;;;;;15.20;13.48;;;19.00;50.70;;;;;;5126821;27;20110;-78
2022/03/02 13:42:17;;;;;;;20.20;13.35;;;18.30;52.30;;;;;;5082504;28;20561;-78
2022/03/02 13:44:44;;;;;;;19.25;14.18;;;18.70;51.20;;;;;;5122232;27;20023;-80
2022/03/02 13:47:13;;;;;;;19.77;13.35;;;17.90;51.10;;;;;;5100016;27;20443;-79
2022/03/02 13:49:46;;;;;;;19.45;13.82;;;17.40;53.40;;;;;;5125668;27;20428;-80
2022/03/02 13:52:12;;;;;;;15.38;13.50;;;17.50;52.00;;;;;;5104438;27;20088;-78
2022/03/02 13:54:38;;;;;;;20.67;15.05;;;17.40;51.50;;;;;;5125355;27;20027;-78
2022/03/02 13:57:04;;;;;;;19.70;15.00;;;16.80;50.10;;;;;;5123785;27;20668;-78
2022/03/02 13:59:31;;;;;;;18.35;14.88;;;16.10;51.70;;;;;;5105210;27;20023;-79
2022/03/02 14:01:57;;;;;;;20.55;15.18;;;16.20;53.00;;;;;;5118437;27;20023;-78
2022/03/02 14:04:32;;;;;;;17.48;14.40;;;15.70;54.70;;;;;;5120754;27;20020;-78
2022/03/02 14:07:04;;;;;;;18.25;14.65;;;15.10;57.10;;;;;;5100606;28;20442;-78
2022/03/02 14:09:30;;;;;;;21.25;14.52;;;14.50;57.40;;;;;;5094741;27;20035;-78
2022/03/02 14:11:58;;;;;;;22.25;14.82;;;14.90;58.10;;;;;;5123361;27;20578;-78
2022/03/02 14:14:26;;;;;;;18.25;13.40;;;15.40;57.40;;;;;;5105677;27;20027;-78
2022/03/02 14:16:59;;;;;;;25.15;15.52;;;15.40;56.90;;;;;;5109998;27;20075;-78
2022/03/02 14:19:27;;;;;;;22.33;15.20;;;15.20;57.30;;;;;;5116577;27;20433;-78
2022/03/02 14:22:15;;;;;;;20.98;14.73;;;15.40;56.60;;;;;;5103696;27;20031;-79
2022/03/02 14:24:43;;;;;;;24.80;15.13;;;15.80;56.50;;;;;;5119188;27;20070;-79
2022/03/02 14:27:29;;;;;;;21.15;15.10;;;15.80;56.50;;;;;;5120637;27;20019;-79
2022/03/02 14:30:16;;;;;;;21.48;15.63;;;15.60;57.20;;;;;;5121416;27;20070;-78
2022/03/02 14:32:44;;;;;;;22.15;14.15;;;15.20;56.60;;;;;;5112209;27;20030;-78
2022/03/02 14:35:20;;;;;;;21.80;14.95;;;14.60;57.60;;;;;;5126037;27;20051;-78
2022/03/02 14:37:49;;;;;;;26.67;15.35;;;14.40;57.90;;;;;;5106689;27;20076;-79
2022/03/02 14:40:26;;;;;;;17.95;13.40;;;14.00;58.70;;;;;;5111149;27;20031;-78
2022/03/02 14:43:00;;;;;;;21.35;14.27;;;13.80;59.10;;;;;;5123888;27;20098;-78
2022/03/02 14:45:34;;;;;;;17.58;13.63;;;13.80;59.50;;;;;;5119848;27;20024;-78
2022/03/02 14:48:14;;;;;;;21.50;13.60;;;13.70;59.30;;;;;;5105069;27;20031;-79
2022/03/02 14:50:53;;;;;;;24.17;14.15;;;14.00;59.20;;;;;;5100146;28;20027;-79
2022/03/02 14:53:24;;;;;;;19.23;15.20;;;14.60;58.50;;;;;;5123542;27;20081;-78
2022/03/02 14:55:54;;;;;;;21.38;14.93;;;15.00;58.00;;;;;;5119439;27;20024;-78
2022/03/02 14:58:40;;;;;;;24.42;16.10;;;14.80;57.70;;;;;;5123637;27;20469;-78
2022/03/02 15:01:06;;;;;;;20.98;14.38;;;14.40;57.70;;;;;;5106620;27;20050;-78
2022/03/02 15:03:33;;;;;;;19.80;15.40;;;13.80;58.90;;;;;;5118503;27;20059;-78
2022/03/02 15:06:27;;;;;;;20.50;15.95;;;13.20;59.90;;;;;;5119321;27;20393;-78
2022/03/02 15:09:05;;;;;;;22.30;15.93;;;12.60;61.40;;;;;;5110765;27;20047;-78
2022/03/02 15:11:36;;;;;;;22.20;15.75;;;12.00;62.60;;;;;;5121187;27;20023;-78
2022/03/02 15:16:57;;;;;;;21.83;15.15;;;11.70;64.60;;;;;;5122213;27;20034;-78
2022/03/02 15:19:47;;;;;;;26.35;15.50;;;12.00;64.10;;;;;;5118883;27;20425;-78
2022/03/02 15:22:15;;;;;;;22.02;15.60;;;12.20;63.70;;;;;;5102085;28;20590;-78
2022/03/02 15:24:48;;;;;;;22.65;16.33;;;12.00;64.30;;;;;;5119418;27;20050;-78
2022/03/02 15:27:15;;;;;;;;;;;11.50;64.90;;;;;;5102458;27;20032;-77
2022/03/02 15:29:41;;;;;;;21.58;14.95;;;11.30;66.40;;;;;;5118861;27;19911;-78
2022/03/02 15:32:10;;;;;;;19.08;14.07;;;11.20;67.30;;;;;;5121976;27;20545;-78
2022/03/02 15:35:00;;;;;;;18.02;15.10;;;11.30;66.30;;;;;;5119247;27;20151;-78
2022/03/02 15:37:31;;;;;;;18.85;14.77;;;11.50;66.00;;;;;;5120095;27;20050;-78
2022/03/02 15:40:10;;;;;;;19.08;14.45;;;11.60;66.30;;;;;;5119726;27;20081;-78
2022/03/02 15:42:44;;;;;;;19.92;14.98;;;11.90;66.10;;;;;;5103054;27;20385;-78
2022/03/02 15:45:16;;;;;;;21.23;15.15;;;12.20;65.20;;;;;;5118779;27;20027;-78
2022/03/02 15:47:51;;;;;;;18.20;14.67;;;12.40;64.50;;;;;;5121659;27;20034;-79
2022/03/02 15:50:39;;;;;;;21.95;14.52;;;12.60;64.50;;;;;;5110010;27;20064;-79
2022/03/02 15:53:08;;;;;;;18.17;14.40;;;13.00;64.30;;;;;;5122200;27;20023;-79
2022/03/02 15:55:42;;;;;;;25.90;15.20;;;13.20;62.70;;;;;;5118282;27;20034;-79
2022/03/02 15:58:17;;;;;;;19.13;14.55;;;13.60;62.90;;;;;;5103918;28;20109;-79
2022/03/02 16:00:48;;;;;;;21.52;14.43;;;13.90;61.00;;;;;;5120532;27;20374;-79
2022/03/02 16:03:33;;;;;;;24.92;16.77;;;13.90;61.00;;;;;;5119810;27;20027;-78
2022/03/02 16:06:17;;;;;;;27.15;17.10;;;13.90;61.10;;;;;;5118420;27;20103;-79
2022/03/02 16:08:43;;;;;;;19.98;15.95;;;13.70;61.40;;;;;;5113402;27;20039;-79
2022/03/02 16:11:16;;;;;;;19.95;16.65;;;13.50;60.80;;;;;;5099891;28;20497;-79
2022/03/02 16:14:04;;;;;;;23.02;15.75;;;13.60;61.60;;;;;;5117089;27;20024;-79
2022/03/02 16:16:31;;;;;;;18.20;15.05;;;13.80;60.40;;;;;;5119907;27;20038;-79
2022/03/02 16:19:15;;;;;;;21.30;16.65;;;14.30;59.80;;;;;;5119296;28;20046;-79
2022/03/02 16:21:54;;;;;;;21.33;16.45;;;14.60;58.90;;;;;;5100965;27;20042;-79
2022/03/02 16:24:34;;;;;;;25.83;17.05;;;14.00;59.40;;;;;;5122898;27;20031;-79
2022/03/02 16:27:17;;;;;;;33.33;20.90;;;12.90;62.00;;;;;;5099234;28;20035;-78
2022/03/02 16:29:48;;;;;;;23.90;16.00;;;11.70;66.60;;;;;;5115929;27;20024;-78
2022/03/02 16:32:14;;;;;;;26.48;16.00;;;10.90;69.40;;;;;;5119750;28;20016;-78
2022/03/02 16:34:40;;;;;;;36.50;23.20;;;10.40;71.80;;;;;;5100731;27;20482;-78
2022/03/02 16:37:18;;;;;;;69.85;37.90;;;9.90;73.50;;;;;;5120729;27;20046;-78
2022/03/02 16:39:44;;;;;;;30.63;20.48;;;9.40;74.50;;;;;;5118160;27;20053;-78
2022/03/02 16:42:10;;;;;;;42.45;24.90;;;9.00;76.00;;;;;;5121417;27;20102;-78
2022/03/02 16:44:37;;;;;;;27.80;19.40;;;8.70;76.60;;;;;;5118615;28;20031;-78
2022/03/02 16:47:05;;;;;;;48.70;25.80;;;8.50;75.60;;;;;;5120633;27;20677;-78
2022/03/02 16:49:32;;;;;;;41.80;25.55;;;8.40;76.70;;;;;;5104239;28;20026;-78
2022/03/02 16:52:01;;;;;;;49.97;30.55;;;8.20;79.10;;;;;;5116876;28;20030;-78
2022/03/02 16:54:27;;;;;;;37.45;25.42;;;8.10;81.10;;;;;;5115653;28;20023;-78
2022/03/02 16:56:53;;;;;;;43.88;23.40;;;7.90;82.00;;;;;;5102637;28;20023;-78
2022/03/02 16:59:19;;;;;;;86.15;52.20;;;7.90;83.30;;;;;;5118427;27;20110;-78
2022/03/02 17:01:45;;;;;;;71.32;41.20;;;7.80;86.20;;;;;;5120417;27;20106;-78
2022/03/02 17:04:13;;;;;;;60.83;35.25;;;7.70;88.00;;;;;;5122136;28;20050;-79
2022/03/02 17:06:48;;;;;;;39.20;27.80;;;7.60;87.90;;;;;;5101906;28;20153;-79
2022/03/02 17:09:15;;;;;;;38.90;24.55;;;7.60;89.20;;;;;;5117932;28;20040;-78
2022/03/02 17:11:42;;;;;;;38.63;24.42;;;7.60;90.40;;;;;;5099945;28;20023;-78
2022/03/02 17:14:08;;;;;;;44.72;27.58;;;7.50;90.70;;;;;;5101933;27;20023;-79
2022/03/02 17:16:34;;;;;;;41.35;20.90;;;7.50;90.80;;;;;;5101983;28;20061;-79
2022/03/02 17:19:03;;;;;;;29.52;18.15;;;7.50;91.10;;;;;;5125170;27;20019;-79
2022/03/02 17:21:49;;;;;;;27.13;16.40;;;7.40;91.10;;;;;;5104753;27;20042;-80
2022/03/02 17:24:17;;;;;;;27.45;17.33;;;7.40;91.30;;;;;;5102808;27;20027;-79
2022/03/02 17:26:43;;;;;;;28.90;19.40;;;7.40;91.40;;;;;;5124068;27;20035;-78